Time;durP1;ratioP1;P1;durP2;ratioP2;P2;SDS_P1;SDS_P2;PMS_P1;PMS_P2;Temp;Humidity;BMP_temperature;BMP_pressure;BME280_temperature;BME280_humidity;BME280_pressure;Samples;Min_cycle;Max_cycle;Signal;HPM_P1;HPM_P2
2021/09/16 00:04:45;;;;;;;44.70;27.30;;;;;;;18.12;65.36;98728.96;233843;1198;138728;-63
2021/09/16 00:09:48;;;;;;;40.00;27.00;;;;;;;18.10;65.33;98729.91;233943;1198;138983;-65
2021/09/16 00:14:51;;;;;;;41.80;28.20;;;;;;;18.06;65.42;98722.09;234212;1198;139960;-65
2021/09/16 00:19:54;;;;;;;38.60;25.40;;;;;;;18.00;65.51;98725.92;234052;1195;138942;-63
2021/09/16 00:24:57;;;;;;;35.60;24.30;;;;;;;17.93;65.69;98722.27;234214;1198;139388;-65
2021/09/16 00:30:01;;;;;;;39.40;26.20;;;;;;;17.90;65.84;98721.15;234196;1198;139138;-62
2021/09/16 00:35:05;;;;;;;41.80;28.20;;;;;;;17.87;65.88;98714.96;234381;1198;138945;-66
2021/09/16 00:40:09;;;;;;;41.50;28.20;;;;;;;17.85;66.16;98711.06;234304;1198;141335;-65
2021/09/16 00:45:12;;;;;;;43.20;27.70;;;;;;;17.83;66.12;98714.48;234284;1198;139419;-64
2021/09/16 00:50:20;;;;;;;43.50;26.10;;;;;;;17.81;66.17;98711.39;234247;1198;139588;-64
2021/09/16 00:55:27;;;;;;;41.50;26.50;;;;;;;17.81;66.19;98713.54;234416;1198;139108;-63
2021/09/16 01:00:30;;;;;;;46.80;28.50;;;;;;;17.83;66.31;98721.66;234056;1198;139048;-65
2021/09/16 01:05:33;;;;;;;40.00;26.60;;;;;;;17.82;66.29;98716.20;234273;1198;138756;-65
2021/09/16 01:10:36;;;;;;;40.60;28.10;;;;;;;17.80;66.35;98720.17;234176;1198;138873;-64
2021/09/16 01:15:39;;;;;;;40.70;26.10;;;;;;;17.75;66.24;98718.80;234193;1198;138956;-66
2021/09/16 01:20:42;;;;;;;41.40;26.80;;;;;;;17.70;66.40;98716.35;234318;1198;140019;-66
2021/09/16 01:25:45;;;;;;;39.30;26.40;;;;;;;17.69;66.36;98713.96;234483;1198;138974;-69
2021/09/16 01:30:49;;;;;;;42.20;28.00;;;;;;;17.69;66.54;98709.67;233667;1198;139629;-68
2021/09/16 01:35:52;;;;;;;41.10;28.00;;;;;;;17.67;66.47;98707.38;233911;1198;139339;-66
2021/09/16 01:40:55;;;;;;;40.40;25.60;;;;;;;17.65;66.68;98701.27;234294;1198;139058;-67
2021/09/16 01:45:58;;;;;;;39.20;25.40;;;;;;;17.63;66.66;98700.04;234253;1198;139093;-68
2021/09/16 01:51:02;;;;;;;40.90;26.70;;;;;;;17.64;66.74;98699.05;234345;1198;139556;-69
2021/09/16 01:56:05;;;;;;;36.20;26.30;;;;;;;17.65;66.91;98697.69;233510;1198;138689;-67
2021/09/16 02:01:08;;;;;;;42.00;29.00;;;;;;;17.66;67.11;98692.52;233847;1198;138814;-65
2021/09/16 02:06:12;;;;;;;36.10;25.90;;;;;;;17.64;67.18;98694.17;234269;1198;138696;-64
2021/09/16 02:11:15;;;;;;;40.80;27.00;;;;;;;17.61;67.03;98691.38;234168;1198;139575;-64
2021/09/16 02:16:18;;;;;;;38.20;26.90;;;;;;;17.65;67.30;98693.77;233542;1198;139249;-64
2021/09/16 02:21:21;;;;;;;41.30;28.50;;;;;;;17.67;67.35;98683.45;234248;1198;139345;-64
2021/09/16 02:26:24;;;;;;;44.40;28.50;;;;;;;17.68;67.33;98682.66;234283;1198;138666;-61
2021/09/16 02:31:27;;;;;;;39.60;27.40;;;;;;;17.67;67.36;98677.39;234449;1198;140585;-63
2021/09/16 02:36:30;;;;;;;39.80;26.50;;;;;;;17.66;67.45;98673.16;233776;1198;140225;-62
2021/09/16 02:41:33;;;;;;;38.10;26.80;;;;;;;17.66;67.49;98672.95;234173;1198;139748;-62
2021/09/16 02:46:36;;;;;;;43.10;28.00;;;;;;;17.68;67.60;98672.60;234270;1198;139188;-64
2021/09/16 02:51:39;;;;;;;42.30;28.40;;;;;;;17.69;67.65;98667.90;234204;1198;139540;-63
2021/09/16 02:56:42;;;;;;;36.70;26.10;;;;;;;17.69;67.57;98668.77;234117;1198;139523;-62
2021/09/16 03:01:46;;;;;;;40.50;25.90;;;;;;;17.67;67.51;98666.10;234413;1198;139358;-64
2021/09/16 03:06:49;;;;;;;38.10;26.30;;;;;;;17.68;67.64;98663.24;234113;1198;139456;-64
2021/09/16 03:11:52;;;;;;;42.90;27.60;;;;;;;17.67;67.68;98663.60;234336;1198;139323;-63
2021/09/16 03:16:55;;;;;;;40.60;27.60;;;;;;;17.66;67.68;98667.77;234276;1198;139307;-66
2021/09/16 03:21:58;;;;;;;37.80;25.70;;;;;;;17.64;67.68;98664.75;234278;1198;138784;-63
2021/09/16 03:27:01;;;;;;;96.20;65.30;;;;;;;17.79;68.83;98668.32;234056;1198;139886;-66
2021/09/16 03:32:04;;;;;;;44.90;28.20;;;;;;;18.34;69.73;98663.80;234289;1198;139884;-65
2021/09/16 03:37:07;;;;;;;137.60;102.00;;;;;;;18.81;69.34;98662.11;234017;1198;139365;-65
2021/09/16 03:42:10;;;;;;;45.90;30.90;;;;;;;19.12;68.86;98662.30;234188;1198;139400;-60
2021/09/16 03:47:16;;;;;;;38.60;26.70;;;;;;;19.21;67.56;98657.14;233850;1198;139229;-66
2021/09/16 03:52:20;;;;;;;42.00;28.60;;;;;;;18.97;66.55;98662.67;234133;1198;139814;-63
2021/09/16 03:57:23;;;;;;;42.20;27.30;;;;;;;18.70;66.21;98663.96;234055;1198;138587;-62
2021/09/16 04:02:26;;;;;;;37.80;24.60;;;;;;;18.43;66.51;98664.04;234271;1198;140746;-68
2021/09/16 04:07:29;;;;;;;37.60;27.60;;;;;;;18.26;66.63;98664.46;234427;1198;140405;-62
2021/09/16 04:12:33;;;;;;;57.40;39.50;;;;;;;18.26;67.41;98663.91;234306;1198;139755;-63
2021/09/16 04:17:36;;;;;;;44.40;32.10;;;;;;;18.47;68.38;98651.52;234202;1198;139307;-62
2021/09/16 04:22:39;;;;;;;48.50;33.10;;;;;;;18.80;68.37;98652.69;234037;1198;138570;-64
2021/09/16 04:27:42;;;;;;;38.70;29.40;;;;;;;18.99;68.03;98651.29;233763;1198;139388;-60
2021/09/16 04:32:46;;;;;;;43.20;28.10;;;;;;;19.07;67.64;98647.47;234033;1198;139824;-61
2021/09/16 04:37:49;;;;;;;42.90;28.80;;;;;;;19.12;67.33;98650.53;233627;1198;139199;-65
2021/09/16 04:42:51;;;;;;;41.10;29.60;;;;;;;19.13;67.34;98658.48;233812;1197;138685;-67
2021/09/16 04:47:54;;;;;;;43.60;30.80;;;;;;;19.01;66.68;98667.99;234305;1198;138853;-69
2021/09/16 04:52:58;;;;;;;41.00;29.00;;;;;;;18.80;66.29;98674.81;234081;1198;140145;-66
2021/09/16 04:58:01;;;;;;;40.10;27.80;;;;;;;18.62;66.62;98670.86;233877;1198;138238;-67
2021/09/16 05:03:04;;;;;;;35.50;25.30;;;;;;;18.52;66.86;98667.94;233999;1198;141509;-65
2021/09/16 05:08:07;;;;;;;43.50;28.00;;;;;;;18.45;67.03;98660.88;234423;1198;140280;-69
2021/09/16 05:13:10;;;;;;;42.90;27.70;;;;;;;18.45;67.24;98661.95;234287;1198;139161;-64
2021/09/16 05:18:13;;;;;;;44.90;27.90;;;;;;;18.45;67.36;98658.73;234074;1198;138910;-63
2021/09/16 05:23:16;;;;;;;44.30;26.60;;;;;;;18.45;67.67;98665.03;234284;1198;139225;-67
2021/09/16 05:28:19;;;;;;;43.70;26.80;;;;;;;18.45;67.64;98661.25;234316;1198;140314;-63
2021/09/16 05:33:22;;;;;;;50.50;29.50;;;;;;;18.55;68.04;98669.77;234148;1198;162128;-61
2021/09/16 05:38:26;;;;;;;45.80;29.70;;;;;;;18.71;68.35;98671.98;234226;1198;139373;-63
2021/09/16 05:43:29;;;;;;;45.90;29.60;;;;;;;18.82;68.31;98672.10;233976;1198;138885;-62
2021/09/16 05:48:32;;;;;;;49.80;28.80;;;;;;;18.85;68.17;98675.54;234332;1198;138838;-65
2021/09/16 05:53:37;;;;;;;48.30;27.20;;;;;;;18.89;68.23;98670.27;234291;1198;139427;-62
2021/09/16 05:58:40;;;;;;;49.70;29.90;;;;;;;18.97;68.60;98674.57;233981;1198;139327;-64
2021/09/16 06:03:43;;;;;;;49.60;28.90;;;;;;;19.05;68.60;98675.80;234307;1198;139165;-65
2021/09/16 06:08:46;;;;;;;46.70;29.10;;;;;;;19.12;68.70;98666.52;234186;1198;138963;-66
2021/09/16 06:13:49;;;;;;;42.70;25.50;;;;;;;19.20;68.66;98670.58;234047;1198;139349;-65
2021/09/16 06:18:52;;;;;;;40.60;25.30;;;;;;;19.26;68.72;98664.91;234208;1198;140718;-62
2021/09/16 06:23:55;;;;;;;46.40;27.70;;;;;;;19.38;68.75;98670.31;234256;1198;139052;-63
2021/09/16 06:28:58;;;;;;;41.50;27.00;;;;;;;19.48;68.80;98676.08;233994;1198;138259;-66
2021/09/16 06:34:03;;;;;;;43.40;28.00;;;;;;;19.59;68.75;98676.54;234145;1198;138805;-64
2021/09/16 06:39:06;;;;;;;42.80;23.50;;;;;;;19.68;68.67;98679.20;234295;1198;139333;-64
2021/09/16 06:44:09;;;;;;;37.30;22.30;;;;;;;19.80;68.64;98685.34;234180;1198;139698;-67
2021/09/16 06:49:12;;;;;;;38.50;22.40;;;;;;;19.93;68.62;98683.09;234179;1198;139321;-66
2021/09/16 06:54:15;;;;;;;34.60;20.70;;;;;;;20.10;68.55;98680.11;234008;1198;141071;-66
2021/09/16 06:59:18;;;;;;;33.00;21.00;;;;;;;20.23;68.28;98677.70;234239;1198;139967;-62
2021/09/16 07:04:21;;;;;;;39.10;22.20;;;;;;;20.31;68.12;98678.90;234289;1197;138858;-63
2021/09/16 07:09:25;;;;;;;34.00;18.60;;;;;;;20.39;68.00;98682.94;234220;1198;138774;-63
2021/09/16 07:14:30;;;;;;;30.60;18.90;;;;;;;20.48;67.76;98685.59;234154;1198;139921;-62
2021/09/16 07:19:33;;;;;;;33.00;20.90;;;;;;;20.57;67.66;98689.00;234229;1198;141699;-62
2021/09/16 07:24:36;;;;;;;33.50;22.40;;;;;;;20.66;67.47;98688.51;234240;1198;139974;-67
2021/09/16 07:29:39;;;;;;;38.50;22.50;;;;;;;20.69;67.11;98692.46;234282;1198;138918;-64
2021/09/16 07:34:42;;;;;;;36.70;21.70;;;;;;;20.71;67.05;98699.73;234207;1198;139627;-63
2021/09/16 07:39:45;;;;;;;32.40;20.10;;;;;;;20.70;66.78;98697.29;234181;1198;139349;-64
2021/09/16 07:44:48;;;;;;;30.10;19.20;;;;;;;20.73;66.78;98694.73;234190;1198;139827;-64
2021/09/16 07:49:51;;;;;;;29.80;19.20;;;;;;;20.80;66.67;98691.15;234248;1198;140766;-63
2021/09/16 07:54:54;;;;;;;33.70;18.00;;;;;;;20.89;66.76;98691.39;233819;1198;139287;-61
2021/09/16 07:59:57;;;;;;;29.70;16.60;;;;;;;20.95;66.40;98695.89;234130;1198;139310;-63
2021/09/16 08:05:00;;;;;;;29.10;14.90;;;;;;;20.98;66.08;98700.48;234139;1196;140554;-64
2021/09/16 08:10:04;;;;;;;371.40;283.70;;;;;;;21.00;65.84;98704.73;234105;1198;139061;-67
2021/09/16 08:15:08;;;;;;;27.10;15.20;;;;;;;21.05;65.81;98707.44;234070;1198;139229;-69
2021/09/16 08:20:12;;;;;;;24.20;14.20;;;;;;;21.14;65.65;98711.16;234138;1198;140316;-63
2021/09/16 08:25:16;;;;;;;26.60;13.40;;;;;;;21.24;65.78;98712.91;234086;1198;139038;-63
2021/09/16 08:30:19;;;;;;;22.30;13.60;;;;;;;21.37;65.59;98708.27;234215;1198;138630;-63
2021/09/16 08:35:23;;;;;;;22.80;14.60;;;;;;;21.45;65.39;98712.52;234085;1198;139339;-63
2021/09/16 08:40:26;;;;;;;30.30;14.60;;;;;;;21.53;65.31;98716.98;234092;1198;139821;-63
2021/09/16 08:45:29;;;;;;;21.00;13.60;;;;;;;21.57;65.13;98716.09;234062;1198;140361;-62
2021/09/16 08:50:33;;;;;;;32.30;22.90;;;;;;;21.60;64.88;98710.70;234023;1198;139005;-63
2021/09/16 08:55:36;;;;;;;22.40;13.10;;;;;;;21.69;64.68;98721.65;234118;1198;140176;-63
2021/09/16 09:00:39;;;;;;;23.60;14.20;;;;;;;21.76;64.65;98720.26;234017;1198;140295;-63
2021/09/16 09:05:44;;;;;;;18.50;12.00;;;;;;;21.87;64.55;98717.89;233584;1198;138762;-63
2021/09/16 09:10:49;;;;;;;22.50;11.70;;;;;;;21.93;64.37;98714.92;234084;1198;138851;-63
2021/09/16 09:16:04;;;;;;;171.30;131.40;;;;;;;21.98;64.03;98713.45;234051;1198;138434;-63
2021/09/16 09:21:09;;;;;;;32.00;23.00;;;;;;;22.03;63.96;98714.30;233945;1198;139208;-67
2021/09/16 09:26:44;;;;;;;21.40;12.90;;;;;;;22.05;63.79;98715.64;234309;1198;140195;-63
2021/09/16 09:32:02;;;;;;;20.20;12.70;;;;;;;22.12;63.75;98713.83;234237;1198;139560;-63
2021/09/16 09:37:12;;;;;;;25.60;13.70;;;;;;;22.18;63.85;98721.95;234232;1197;139156;-67
2021/09/16 09:42:19;;;;;;;23.60;14.30;;;;;;;22.26;63.94;98718.05;234172;1198;138696;-65
2021/09/16 09:47:37;;;;;;;19.30;13.50;;;;;;;22.30;63.78;98716.09;234093;1198;138626;-64
2021/09/16 09:52:40;;;;;;;24.30;14.50;;;;;;;22.29;63.70;98713.65;234171;1198;138952;-64
2021/09/16 09:57:45;;;;;;;26.80;14.30;;;;;;;22.30;63.73;98721.27;234186;1198;138541;-66
2021/09/16 10:03:29;;;;;;;19.80;12.20;;;;;;;22.33;63.69;98722.58;233365;1212;653250;-63
2021/09/16 10:08:32;;;;;;;16.90;13.00;;;;;;;22.34;63.76;98717.81;235265;1201;141490;-66
2021/09/16 10:13:35;;;;;;;21.60;14.20;;;;;;;22.45;64.08;98717.18;234979;1201;138026;-63
2021/09/16 10:18:39;;;;;;;25.30;14.60;;;;;;;22.54;64.21;98713.85;235058;1201;138008;-65
2021/09/16 10:23:43;;;;;;;22.20;16.10;;;;;;;22.63;64.17;98714.42;235193;1201;138316;-65
2021/09/16 10:28:46;;;;;;;22.30;15.80;;;;;;;22.69;64.10;98712.55;235219;1201;140214;-65
2021/09/16 10:33:50;;;;;;;32.90;17.10;;;;;;;22.74;63.89;98716.73;235153;1201;138353;-62
2021/09/16 10:38:55;;;;;;;25.70;16.50;;;;;;;22.75;63.78;98718.75;235334;1200;138061;-61
2021/09/16 10:43:58;;;;;;;24.90;16.80;;;;;;;22.81;63.81;98711.25;235170;1201;139230;-63
2021/09/16 10:49:20;;;;;;;28.20;17.10;;;;;;;22.91;63.86;98705.36;235255;1201;139124;-64
2021/09/16 10:54:24;;;;;;;24.10;16.30;;;;;;;23.00;63.92;98697.01;235014;1201;138345;-65
2021/09/16 10:59:52;;;;;;;22.00;16.50;;;;;;;23.03;63.78;98693.09;234891;1201;139817;-62
2021/09/16 11:04:55;;;;;;;26.70;17.50;;;;;;;23.07;63.68;98691.15;235188;1201;139379;-63
2021/09/16 11:10:16;;;;;;;25.50;15.80;;;;;;;23.10;63.57;98689.66;235403;1200;138363;-62
2021/09/16 11:15:26;;;;;;;23.20;14.80;;;;;;;23.12;63.47;98680.34;234881;1201;142921;-62
2021/09/16 11:20:29;;;;;;;18.40;13.10;;;;;;;23.18;63.63;98676.02;235127;1202;138781;-61
2021/09/16 11:25:43;;;;;;;22.20;14.70;;;;;;;23.26;63.55;98678.89;235132;1201;138933;-64
2021/09/16 11:30:47;;;;;;;22.50;14.10;;;;;;;23.34;63.53;98671.94;235080;1201;138085;-63
2021/09/16 11:35:50;;;;;;;18.00;13.00;;;;;;;23.36;63.32;98660.61;234796;1202;138142;-63
2021/09/16 11:41:04;;;;;;;19.00;13.10;;;;;;;23.41;62.93;98660.98;234786;1201;138146;-64
2021/09/16 11:46:13;;;;;;;17.40;12.60;;;;;;;23.42;62.75;98659.95;235084;1201;139561;-63
2021/09/16 11:51:16;;;;;;;20.40;13.20;;;;;;;23.43;62.68;98645.70;235169;1201;137899;-64
2021/09/16 11:56:19;;;;;;;18.60;12.60;;;;;;;23.46;62.80;98642.79;234867;1201;138206;-64
2021/09/16 12:01:23;;;;;;;16.40;11.50;;;;;;;23.54;62.83;98634.80;234863;1202;138128;-63
2021/09/16 12:06:30;;;;;;;19.00;12.80;;;;;;;23.64;62.79;98630.38;234797;1202;139102;-65
2021/09/16 12:11:33;;;;;;;22.90;11.90;;;;;;;23.72;62.48;98628.63;234914;1196;138304;-63
2021/09/16 12:16:41;;;;;;;56.60;46.10;;;;;;;23.75;62.14;98628.91;234784;1201;138501;-67
2021/09/16 12:21:54;;;;;;;17.00;14.30;;;;;;;23.75;61.93;98634.73;234476;1201;138456;-61
2021/09/16 12:26:57;;;;;;;15.10;11.90;;;;;;;23.72;61.62;98631.67;234965;1201;138200;-64
2021/09/16 12:32:02;;;;;;;16.10;11.80;;;;;;;23.65;61.30;98621.09;235315;1198;138917;-66
2021/09/16 12:37:16;;;;;;;20.20;12.50;;;;;;;23.63;61.16;98619.35;235423;1197;139189;-65
2021/09/16 12:42:38;;;;;;;22.10;13.10;;;;;;;23.63;61.24;98620.23;235445;1198;138743;-63
2021/09/16 12:47:50;;;;;;;16.60;12.10;;;;;;;23.63;61.32;98621.48;235257;1198;137990;-62
2021/09/16 12:52:53;;;;;;;20.20;12.50;;;;;;;23.61;61.11;98622.42;235217;1198;139201;-64
2021/09/16 12:58:05;;;;;;;19.00;13.30;;;;;;;23.58;61.08;98620.85;235467;1198;139385;-63
2021/09/16 13:03:17;;;;;;;23.90;10.90;;;;;;;23.55;60.97;98619.80;235433;1197;138633;-64
2021/09/16 13:08:27;;;;;;;14.40;11.30;;;;;;;23.55;61.18;98606.30;235416;1198;139108;-64
2021/09/16 13:13:30;;;;;;;17.70;12.30;;;;;;;23.60;61.39;98606.12;235413;1198;138359;-62
2021/09/16 13:18:37;;;;;;;22.50;12.70;;;;;;;23.65;61.54;98598.82;235493;1198;138529;-65
2021/09/16 13:23:40;;;;;;;20.80;13.70;;;;;;;23.70;61.53;98591.54;235528;1198;138511;-64
2021/09/16 13:28:43;;;;;;;18.00;12.50;;;;;;;23.73;61.32;98588.83;235509;1197;138404;-65
2021/09/16 13:33:46;;;;;;;25.50;14.70;;;;;;;23.72;61.34;98586.49;235612;1198;138718;-63
2021/09/16 13:38:49;;;;;;;21.40;12.20;;;;;;;23.70;61.50;98585.36;235622;1198;138517;-64
2021/09/16 13:43:52;;;;;;;31.20;14.50;;;;;;;23.68;61.51;98585.73;235315;1198;139654;-62
2021/09/16 13:48:56;;;;;;;31.60;14.50;;;;;;;23.68;61.88;98590.23;235551;1196;138613;-63
2021/09/16 13:54:00;;;;;;;17.40;13.20;;;;;;;23.69;61.78;98592.13;235251;1198;140107;-63
2021/09/16 13:59:03;;;;;;;20.30;13.90;;;;;;;23.68;61.54;98592.16;235570;1196;138516;-64
2021/09/16 14:04:06;;;;;;;22.90;15.80;;;;;;;23.64;61.50;98588.73;235641;1196;138809;-61
2021/09/16 14:09:09;;;;;;;78.40;65.50;;;;;;;23.60;61.53;98587.95;235365;1198;138251;-62
2021/09/16 14:14:12;;;;;;;81.80;64.80;;;;;;;23.57;61.52;98590.87;235391;1196;138991;-62
2021/09/16 14:19:16;;;;;;;49.30;35.80;;;;;;;23.54;61.60;98587.44;235458;1198;138112;-62
2021/09/16 14:24:19;;;;;;;26.80;17.30;;;;;;;23.54;61.64;98588.38;235688;1197;139776;-62
2021/09/16 14:29:22;;;;;;;26.90;15.40;;;;;;;23.56;61.40;98594.31;235233;1196;140747;-63
2021/09/16 14:34:25;;;;;;;27.20;17.50;;;;;;;23.58;61.23;98591.17;235287;1198;138661;-61
2021/09/16 14:39:28;;;;;;;31.60;17.90;;;;;;;23.58;61.21;98592.39;235559;1196;138582;-61
2021/09/16 14:44:33;;;;;;;26.60;15.70;;;;;;;23.55;61.41;98591.47;235698;1196;138536;-59
2021/09/16 14:49:36;;;;;;;310.60;235.50;;;;;;;23.52;61.42;98589.75;235162;1197;138299;-64
2021/09/16 14:54:39;;;;;;;35.70;23.80;;;;;;;23.49;61.58;98591.92;235335;1198;138783;-61
2021/09/16 14:59:42;;;;;;;30.10;19.80;;;;;;;23.43;61.64;98583.24;235346;1196;138932;-62
2021/09/16 15:04:45;;;;;;;22.20;14.40;;;;;;;23.40;61.78;98582.52;235675;1196;139130;-62
2021/09/16 15:09:49;;;;;;;22.30;13.80;;;;;;;23.40;61.83;98591.02;235438;1196;138872;-62
2021/09/16 15:14:52;;;;;;;14.30;10.50;;;;;;;23.40;61.74;98590.61;235375;1196;138286;-62
2021/09/16 15:19:55;;;;;;;17.00;10.80;;;;;;;23.41;61.47;98585.17;235117;1196;138479;-65
2021/09/16 15:24:59;;;;;;;17.00;11.50;;;;;;;23.37;61.13;98580.32;235619;1196;138900;-65
2021/09/16 15:30:19;;;;;;;42.30;29.70;;;;;;;23.31;61.14;98577.27;235290;1197;138936;-64
2021/09/16 15:35:22;;;;;;;20.60;16.30;;;;;;;23.26;61.01;98575.91;235404;1197;138645;-63
2021/09/16 15:40:28;;;;;;;37.10;18.10;;;;;;;23.19;60.96;98574.55;235112;1198;138201;-62
2021/09/16 15:45:31;;;;;;;20.50;12.40;;;;;;;23.12;61.03;98580.34;235285;1197;138436;-63
2021/09/16 15:50:34;;;;;;;96.40;80.10;;;;;;;23.04;61.13;98577.84;235527;1196;138842;-63
2021/09/16 15:55:37;;;;;;;19.60;13.80;;;;;;;23.03;61.21;98575.68;235513;1196;139009;-62
2021/09/16 16:00:41;;;;;;;18.70;13.00;;;;;;;23.00;61.34;98574.40;235523;1196;138672;-67
2021/09/16 16:05:58;;;;;;;18.40;12.30;;;;;;;22.94;61.46;98569.46;235599;1196;138838;-64
2021/09/16 16:11:03;;;;;;;16.80;13.10;;;;;;;22.88;61.68;98572.85;235309;1198;138235;-64
2021/09/16 16:16:06;;;;;;;;;;;;;;;22.81;61.78;98578.46;235217;1198;138410;-64
2021/09/16 16:21:10;;;;;;;27.70;17.40;;;;;;;22.71;61.93;98581.23;235557;1198;124183;-61
2021/09/16 16:26:12;;;;;;;211.70;159.20;;;;;;;22.58;62.00;98585.48;235666;1197;138428;-62
2021/09/16 16:31:17;;;;;;;73.60;55.70;;;;;;;22.57;62.52;98585.71;235247;1198;139363;-64
2021/09/16 16:36:20;;;;;;;62.30;46.50;;;;;;;22.55;62.64;98588.02;234934;1184;142467;-61
2021/09/16 16:41:23;;;;;;;43.90;34.40;;;;;;;22.53;62.81;98588.32;235397;1198;138424;-62
2021/09/16 16:46:26;;;;;;;22.80;16.60;;;;;;;22.50;63.00;98591.39;235646;1197;138683;-63
2021/09/16 16:51:32;;;;;;;25.70;14.80;;;;;;;22.45;63.24;98600.98;235325;1197;138673;-63
2021/09/16 16:56:36;;;;;;;22.30;15.70;;;;;;;22.39;63.37;98597.02;235249;1198;138773;-64
2021/09/16 17:01:39;;;;;;;21.50;13.00;;;;;;;22.37;63.52;98599.97;235453;1197;139955;-66
2021/09/16 17:06:42;;;;;;;24.90;13.70;;;;;;;22.39;63.84;98602.09;234677;1196;138203;-65
2021/09/16 17:11:45;;;;;;;24.80;15.80;;;;;;;22.39;63.86;98606.56;235153;1196;138719;-66
2021/09/16 17:16:48;;;;;;;23.60;17.50;;;;;;;22.39;64.00;98608.77;235520;1198;138413;-64
2021/09/16 17:21:54;;;;;;;26.20;17.30;;;;;;;22.44;64.07;98620.25;235527;1197;138320;-63
2021/09/16 17:27:01;;;;;;;21.80;15.90;;;;;;;22.45;64.02;98614.73;235067;1196;138101;-66
2021/09/16 17:32:05;;;;;;;127.10;96.10;;;;;;;22.46;64.15;98609.40;235297;1198;139528;-67
2021/09/16 17:37:08;;;;;;;22.90;17.60;;;;;;;22.51;64.29;98613.34;233561;1197;139001;-67
2021/09/16 17:42:11;;;;;;;26.40;19.50;;;;;;;22.50;64.15;98614.55;235030;1198;138565;-67
2021/09/16 17:47:17;;;;;;;48.90;34.00;;;;;;;22.45;64.24;98608.34;235407;1196;139285;-63
2021/09/16 17:52:21;;;;;;;29.60;19.70;;;;;;;22.40;64.43;98608.77;235848;1196;138359;-66
2021/09/16 17:57:24;;;;;;;26.70;16.70;;;;;;;22.34;64.58;98602.09;235673;1195;138965;-68
2021/09/16 18:02:27;;;;;;;29.60;17.80;;;;;;;22.30;64.79;98594.46;235915;1195;139401;-67
2021/09/16 18:07:31;;;;;;;28.10;18.80;;;;;;;22.28;64.96;98591.98;235551;1196;138570;-68
2021/09/16 18:12:34;;;;;;;28.60;20.80;;;;;;;22.26;64.92;98598.77;235931;1195;138194;-67
2021/09/16 18:17:38;;;;;;;30.40;21.70;;;;;;;22.20;65.04;98594.70;235790;1196;138166;-67
2021/09/16 18:22:42;;;;;;;28.10;18.90;;;;;;;22.16;65.19;98601.38;235565;1196;138553;-64
2021/09/16 18:27:45;;;;;;;30.40;19.70;;;;;;;22.13;65.20;98605.63;235498;1195;138936;-66
2021/09/16 18:32:49;;;;;;;29.50;22.10;;;;;;;22.11;65.28;98609.10;235719;1196;140277;-67
2021/09/16 18:37:52;;;;;;;28.60;21.50;;;;;;;22.12;65.45;98607.44;235833;1195;138798;-69
2021/09/16 18:42:56;;;;;;;32.70;21.10;;;;;;;22.12;65.50;98601.47;235798;1195;138821;-64
2021/09/16 18:47:59;;;;;;;25.60;20.20;;;;;;;22.07;65.67;98601.96;235725;1196;138659;-65
2021/09/16 18:53:02;;;;;;;32.40;20.20;;;;;;;22.05;65.72;98596.89;235803;1195;139428;-65
2021/09/16 18:58:05;;;;;;;29.00;21.60;;;;;;;21.99;65.64;98599.09;235863;1195;138736;-63
2021/09/16 19:03:09;;;;;;;28.60;22.60;;;;;;;21.94;65.73;98597.86;235908;1196;138639;-66
2021/09/16 19:08:14;;;;;;;35.20;23.10;;;;;;;21.89;65.88;98602.08;235119;1195;139358;-63
2021/09/16 19:13:20;;;;;;;28.90;21.40;;;;;;;21.83;66.05;98595.71;235840;1195;138943;-62
2021/09/16 19:18:25;;;;;;;33.30;25.60;;;;;;;21.80;66.12;98598.48;235770;1189;139763;-61
2021/09/16 19:23:31;;;;;;;33.90;24.10;;;;;;;21.78;66.18;98599.43;236079;1195;141420;-62
2021/09/16 19:28:37;;;;;;;34.20;24.50;;;;;;;21.74;66.39;98601.36;236082;1195;138544;-61
2021/09/16 19:33:42;;;;;;;33.70;24.10;;;;;;;21.70;66.43;98607.86;235867;1195;138385;-63
2021/09/16 19:38:46;;;;;;;32.60;21.90;;;;;;;21.64;66.52;98614.20;236102;1195;138875;-64
2021/09/16 19:43:51;;;;;;;32.00;20.50;;;;;;;21.62;66.75;98610.52;235800;1196;139264;-62
2021/09/16 19:48:55;;;;;;;27.10;21.40;;;;;;;21.60;66.87;98611.95;235762;1196;139186;-65
2021/09/16 19:53:58;;;;;;;30.10;21.70;;;;;;;21.63;67.16;98615.25;235811;1196;140967;-63
2021/09/16 19:59:02;;;;;;;30.10;21.60;;;;;;;21.61;67.19;98614.06;235914;1195;140900;-62
2021/09/16 20:04:05;;;;;;;35.50;23.00;;;;;;;21.56;67.17;98613.86;235638;1195;139728;-63
2021/09/16 20:09:09;;;;;;;30.70;20.60;;;;;;;21.52;67.27;98615.07;235675;1196;139396;-64
2021/09/16 20:14:12;;;;;;;31.90;19.70;;;;;;;21.46;67.27;98620.40;235996;1195;140320;-64
2021/09/16 20:19:15;;;;;;;31.90;21.10;;;;;;;21.41;67.49;98623.17;236002;1196;138415;-63
2021/09/16 20:24:18;;;;;;;28.20;21.00;;;;;;;21.37;67.58;98623.31;235990;1195;138580;-61
2021/09/16 20:29:24;;;;;;;27.20;18.40;;;;;;;21.36;67.73;98618.87;235714;1195;138211;-64
2021/09/16 20:34:27;;;;;;;24.10;17.50;;;;;;;21.35;67.70;98620.77;235632;1196;141017;-63
2021/09/16 20:39:30;;;;;;;28.30;20.00;;;;;;;21.35;67.74;98625.77;235474;1196;139143;-64
2021/09/16 20:44:35;;;;;;;26.50;20.40;;;;;;;21.34;67.82;98624.80;235938;1195;138369;-63
2021/09/16 20:49:40;;;;;;;25.20;19.10;;;;;;;21.31;67.83;98618.35;235637;1195;140969;-62
2021/09/16 20:54:43;;;;;;;24.30;17.30;;;;;;;21.23;67.88;98619.73;235490;1196;138281;-64
2021/09/16 20:59:47;;;;;;;24.60;17.80;;;;;;;21.17;67.94;98617.41;235831;1195;140973;-59
2021/09/16 21:04:50;;;;;;;24.00;15.70;;;;;;;21.14;67.98;98613.80;235874;1196;141168;-63
2021/09/16 21:09:55;;;;;;;18.00;15.30;;;;;;;21.08;68.14;98615.74;235889;1195;138409;-65
2021/09/16 21:14:58;;;;;;;22.40;15.40;;;;;;;21.02;68.25;98615.41;235952;1196;142098;-60
2021/09/16 21:20:03;;;;;;;15.30;12.40;;;;;;;20.95;68.31;98615.13;235864;1195;138902;-60
2021/09/16 21:25:06;;;;;;;15.00;11.20;;;;;;;20.90;68.26;98618.20;235722;1196;140082;-60
2021/09/16 21:30:09;;;;;;;15.70;12.80;;;;;;;20.87;68.41;98620.91;235869;1189;140139;-61
2021/09/16 21:35:13;;;;;;;17.00;13.10;;;;;;;20.86;68.48;98622.31;236017;1195;138124;-62
2021/09/16 21:40:17;;;;;;;18.90;13.90;;;;;;;20.85;68.52;98616.77;235940;1195;140692;-64
2021/09/16 21:45:22;;;;;;;11.40;9.50;;;;;;;20.82;68.53;98613.85;235966;1195;139963;-64
2021/09/16 21:50:25;;;;;;;9.40;8.40;;;;;;;20.78;68.39;98614.55;236018;1196;138547;-65
2021/09/16 21:55:29;;;;;;;12.90;10.00;;;;;;;20.73;68.53;98610.88;235948;1196;138537;-64
2021/09/16 22:00:32;;;;;;;15.60;11.00;;;;;;;20.70;68.60;98606.61;235940;1196;139600;-63
2021/09/16 22:05:35;;;;;;;14.00;10.40;;;;;;;20.67;68.55;98608.50;235629;1195;138192;-63
2021/09/16 22:10:41;;;;;;;16.40;11.30;;;;;;;20.60;68.56;98612.18;234727;1195;139657;-63
2021/09/16 22:15:45;;;;;;;22.90;16.50;;;;;;;20.53;68.80;98620.20;234917;1195;140730;-64
2021/09/16 22:20:49;;;;;;;23.40;13.50;;;;;;;20.49;69.01;98613.58;235989;1196;139488;-64
2021/09/16 22:25:53;;;;;;;16.80;14.00;;;;;;;20.46;69.15;98601.14;235862;1195;138789;-62
2021/09/16 22:30:56;;;;;;;17.70;13.80;;;;;;;20.43;69.29;98590.21;236146;1196;138323;-61
2021/09/16 22:36:00;;;;;;;17.50;12.50;;;;;;;20.44;69.39;98577.29;235795;1196;139003;-71
2021/09/16 22:41:04;;;;;;;19.90;13.00;;;;;;;20.49;69.43;98578.93;236234;1195;139475;-65
2021/09/16 22:46:08;;;;;;;17.80;13.60;;;;;;;20.51;69.53;98572.95;235754;1196;139886;-64
2021/09/16 22:51:14;;;;;;;15.50;12.70;;;;;;;20.52;69.51;98568.56;235942;1195;139224;-63